• Join FlightAware (Why Join?)
  • Login
  • US Flag GB Flag 
01:06 EDT


 

Airport Tracker/Info


-or-


 

Live Flight TrackerFlight Track Log ✈ AAY834 ✈ 26-Jun-2014 ✈ KPIE - KGSO

Flight Track Log - Related Links

Times and Time Zones

All times are in EDT time to prevent confusion due to time zone crossing. See the AAY834 flight status page for this flight to view local times or setup timezone preferences in your user account.

Time Position Orientation Groundspeed Altitude Reporting Facility
EDT Latitude Longitude Course Direction KTS MPH feet Rate Location/Type
11:24 28.0212 -82.6667 North  Level FlightAware Approximate
11:25 27.9333 -82.7000 North 140 161 800  Level Tampa TRACON
11:25 27.9500 -82.7000 360° North 154 177 1,800 1,560 Climbing Tampa TRACON
11:26 28.0000 -82.6667 30° Northeast 245 282 3,200 2,100 Climbing Tampa TRACON
11:27 28.0833 -82.6667 360° North 272 313 6,300 1,920 Climbing Tampa TRACON
11:28 28.5652 -82.6500 North  Level FlightAware Approximate
11:33 28.5856 -82.5886 352° North 366 421 16,300  Level FlightAware ADS-B (KMCO)
11:34 28.6566 -82.5994 353° North 375 432 17,900 1,620 Climbing FlightAware ADS-B (KMCO)
11:35 28.7536 -82.6128 353° North 370 426 19,400 1,680 Climbing Miami Center
11:36 28.8833 -82.6331 352° North 388 447 21,600 1,380 Climbing Miami Center
11:42 29.6247 -82.6791 18° North 454 522 29,800 1,260 Climbing FlightAware ADS-B (KMCO)
11:43 29.7475 -82.6238 20° North 456 525 30,900 1,080 Climbing FlightAware ADS-B (KMCO)
11:44 29.7859 -82.6135 North 455 524 31,700 1,320 Climbing FlightAware ADS-B (KMCO)
11:46 30.0548 -82.5909 North 445 512 34,500 1,260 Climbing FlightAware ADS-B (KMCO)
11:46 30.1674 -82.5814 North 436 502 35,300 1,080 Climbing FlightAware ADS-B (KMCO)
11:47 30.2670 -82.5730 North 432 497 36,200 900 Climbing FlightAware ADS-B (KMCO)
11:48 30.3392 -82.5700 North 438 504 36,800 360 Climbing Jacksonville Center
11:49 30.4581 -82.5575 North 433 498 36,900  Climbing Jacksonville Center
11:50 30.5728 -82.5283 12° North 427 491 36,900  Level Jacksonville Center
11:51 30.6875 -82.4819 19° North 427 491 36,900  Level Jacksonville Center
11:52 30.8003 -82.4403 18° North 427 491 36,900  Level Jacksonville Center
11:53 30.9150 -82.3939 19° North 427 491 36,900  Level Jacksonville Center
11:54 31.0294 -82.3469 19° North 428 493 36,900  Level Jacksonville Center
11:55 31.1442 -82.3053 17° North 428 493 36,900  Level Jacksonville Center
11:56 31.2589 -82.2606 18° North 428 493 36,900  Level Jacksonville Center
11:57 31.3733 -82.2136 19° North 428 493 36,900  Level Jacksonville Center
11:58 31.4983 -82.1642 19° North 423 487 36,900  Level Jacksonville Center
11:59 31.6131 -82.1167 19° North 430 495 36,900  Level Jacksonville Center
12:00 31.7275 -82.0694 19° North 430 495 37,000  Climbing Jacksonville Center
12:01 31.8294 -82.0294 18° North 429 494 37,000  Level Jacksonville Center
12:03 32.0689 -81.9267 21° North 429 494 37,000  Level Jacksonville Center
12:04 32.1708 -81.8789 22° Northeast 429 494 37,000  Level Jacksonville Center
12:05 32.2956 -81.8211 21° North 434 499 37,000  Level Jacksonville Center
12:07 32.5139 -81.7150 25° Northeast 434 499 37,000 -120 Level Jacksonville Center
12:13 33.2620 -81.3473 22° Northeast 443 510 36,400 -180 Descending FlightAware ADS-B (KCDN)
12:14 33.3189 -81.3194 22° Northeast 446 513 36,000 -840 Descending FlightAware ADS-B (KCDN)
12:15 33.4593 -81.2505 22° Northeast 451 519 35,000 -600 Descending FlightAware ADS-B (KCDN)
12:16 33.5267 -81.2175 22° Northeast 454 522 35,000  Level FlightAware ADS-B (KCDN)
12:16 33.6081 -81.1774 22° Northeast 452 520 35,000  Level FlightAware ADS-B (KCDN)
12:17 33.6928 -81.1356 22° Northeast 451 519 35,000  Level FlightAware ADS-B (KCDN)
12:18 33.7502 -81.1072 22° Northeast 451 519 35,000 -240 Level FlightAware ADS-B (KCDN)
12:18 33.8178 -81.0737 23° Northeast 452 520 34,800 -600 Descending FlightAware ADS-B (KCDN)
12:19 33.8708 -81.0397 37° Northeast 457 526 34,400 -960 Descending FlightAware ADS-B (KCDN)
12:19 33.9359 -80.9706 42° Northeast 461 531 33,700 -960 Descending FlightAware ADS-B (KCDN)
12:20 33.9944 -80.9089 41° Northeast 461 531 33,200 -960 Descending FlightAware ADS-B (KCDN)
12:21 34.0659 -80.8333 41° Northeast 457 526 32,400 -1,080 Descending FlightAware ADS-B (KCDN)
12:22 34.1569 -80.7367 42° Northeast 463 533 31,400 -1,080 Descending FlightAware ADS-B (KCDN)
12:22 34.2044 -80.6861 42° Northeast 458 527 30,900 -1,200 Descending FlightAware ADS-B (KCDN)
12:28 34.7569 -80.0909 42° Northeast 416 479 23,500 -1,140 Descending FlightAware ADS-B (KCDN)
12:29 34.8219 -80.0244 42° Northeast 416 479 23,000 -540 Descending Washington Center
12:30 34.9350 -79.9597 25° Northeast 404 465 22,500 -720 Descending Washington Center
12:31 35.0264 -79.9089 24° Northeast 399 459 21,600 -900 Descending Washington Center
12:33 35.1678 -79.9131 359° North  Level Estimated
12:40 35.9490 -79.9365 359° North  Level Estimated
12:41 36.0612 -79.9333 North  Level FlightAware Approximate
12:42 36.1000 -79.9333 North  Level FlightAware Approximate
12:43 36.1013 -79.9411 North  Level Estimated
12:44 36.1000 -79.9333 North  Level FlightAware Approximate
12:45 36.1013 -79.9411 North  Level Estimated
12:46 36.1000 -79.9333 North  Level FlightAware Approximate
12:47 36.1013 -79.9411 North  Level Estimated
12:48 36.1000 -79.9333 North  Level FlightAware Approximate
12:49 36.1013 -79.9411 North  Level Estimated